sensor_id;sensor_type;location;lat;lon;timestamp;P1;durP1;ratioP1;P2;durP2;ratioP2
75542;SDS011;64129;53.508;10.476;2022-11-20T00:01:14;4.75;;;4.03;;
75542;SDS011;64129;53.508;10.476;2022-11-20T00:03:42;5.25;;;3.40;;
75542;SDS011;64129;53.508;10.476;2022-11-20T00:06:11;7.47;;;4.22;;
75542;SDS011;64129;53.508;10.476;2022-11-20T00:08:39;6.70;;;4.15;;
75542;SDS011;64129;53.508;10.476;2022-11-20T00:11:07;5.20;;;3.97;;
75542;SDS011;64129;53.508;10.476;2022-11-20T00:13:41;5.60;;;3.58;;
75542;SDS011;64129;53.508;10.476;2022-11-20T00:16:09;3.67;;;3.10;;
75542;SDS011;64129;53.508;10.476;2022-11-20T00:18:36;6.55;;;4.00;;
75542;SDS011;64129;53.508;10.476;2022-11-20T00:21:07;4.32;;;3.25;;
75542;SDS011;64129;53.508;10.476;2022-11-20T00:23:38;4.93;;;3.60;;
75542;SDS011;64129;53.508;10.476;2022-11-20T00:26:06;6.82;;;3.75;;
75542;SDS011;64129;53.508;10.476;2022-11-20T00:28:34;5.43;;;3.90;;
75542;SDS011;64129;53.508;10.476;2022-11-20T00:31:05;6.68;;;4.15;;
75542;SDS011;64129;53.508;10.476;2022-11-20T00:33:37;6.28;;;3.13;;
75542;SDS011;64129;53.508;10.476;2022-11-20T00:36:04;5.90;;;3.78;;
75542;SDS011;64129;53.508;10.476;2022-11-20T00:38:36;5.22;;;3.97;;
75542;SDS011;64129;53.508;10.476;2022-11-20T00:41:04;5.30;;;3.67;;
75542;SDS011;64129;53.508;10.476;2022-11-20T00:43:33;3.67;;;3.13;;
75542;SDS011;64129;53.508;10.476;2022-11-20T00:46:05;5.60;;;3.60;;
75542;SDS011;64129;53.508;10.476;2022-11-20T00:48:35;4.45;;;3.10;;
75542;SDS011;64129;53.508;10.476;2022-11-20T00:51:02;5.25;;;3.20;;
75542;SDS011;64129;53.508;10.476;2022-11-20T00:53:28;6.10;;;3.80;;
75542;SDS011;64129;53.508;10.476;2022-11-20T00:55:56;7.10;;;3.55;;
75542;SDS011;64129;53.508;10.476;2022-11-20T00:58:31;4.88;;;3.42;;
75542;SDS011;64129;53.508;10.476;2022-11-20T01:01:21;5.07;;;3.67;;
75542;SDS011;64129;53.508;10.476;2022-11-20T01:03:48;5.13;;;3.63;;
75542;SDS011;64129;53.508;10.476;2022-11-20T01:06:29;5.15;;;3.50;;
75542;SDS011;64129;53.508;10.476;2022-11-20T01:08:59;5.03;;;3.35;;
75542;SDS011;64129;53.508;10.476;2022-11-20T01:11:28;4.18;;;3.65;;
75542;SDS011;64129;53.508;10.476;2022-11-20T01:13:59;4.47;;;3.45;;
75542;SDS011;64129;53.508;10.476;2022-11-20T01:16:29;4.65;;;3.22;;
75542;SDS011;64129;53.508;10.476;2022-11-20T01:19:00;5.53;;;3.70;;
75542;SDS011;64129;53.508;10.476;2022-11-20T01:21:29;6.13;;;3.88;;
75542;SDS011;64129;53.508;10.476;2022-11-20T01:23:56;6.18;;;3.30;;
75542;SDS011;64129;53.508;10.476;2022-11-20T01:26:24;7.10;;;3.88;;
75542;SDS011;64129;53.508;10.476;2022-11-20T01:28:53;9.27;;;4.15;;
75542;SDS011;64129;53.508;10.476;2022-11-20T01:31:21;4.93;;;3.67;;
75542;SDS011;64129;53.508;10.476;2022-11-20T01:33:50;5.00;;;3.08;;
75542;SDS011;64129;53.508;10.476;2022-11-20T01:36:20;6.35;;;3.97;;
75542;SDS011;64129;53.508;10.476;2022-11-20T01:38:47;3.60;;;2.92;;
75542;SDS011;64129;53.508;10.476;2022-11-20T01:41:16;5.68;;;3.60;;
75542;SDS011;64129;53.508;10.476;2022-11-20T01:44:02;5.20;;;3.72;;
75542;SDS011;64129;53.508;10.476;2022-11-20T01:46:33;7.00;;;4.05;;
75542;SDS011;64129;53.508;10.476;2022-11-20T01:54:40;5.50;;;3.65;;
75542;SDS011;64129;53.508;10.476;2022-11-20T01:57:12;7.65;;;4.15;;
75542;SDS011;64129;53.508;10.476;2022-11-20T01:59:42;5.40;;;3.45;;
75542;SDS011;64129;53.508;10.476;2022-11-20T02:02:19;5.35;;;4.32;;
75542;SDS011;64129;53.508;10.476;2022-11-20T02:04:47;6.35;;;4.38;;
75542;SDS011;64129;53.508;10.476;2022-11-20T02:07:15;4.50;;;3.40;;
75542;SDS011;64129;53.508;10.476;2022-11-20T02:09:42;8.95;;;4.55;;
75542;SDS011;64129;53.508;10.476;2022-11-20T02:12:09;8.18;;;3.80;;
75542;SDS011;64129;53.508;10.476;2022-11-20T02:14:56;5.85;;;3.45;;
75542;SDS011;64129;53.508;10.476;2022-11-20T02:17:23;7.18;;;3.80;;
75542;SDS011;64129;53.508;10.476;2022-11-20T02:22:19;4.85;;;3.60;;
75542;SDS011;64129;53.508;10.476;2022-11-20T02:24:51;6.30;;;3.60;;
75542;SDS011;64129;53.508;10.476;2022-11-20T02:27:17;6.18;;;4.30;;
75542;SDS011;64129;53.508;10.476;2022-11-20T02:29:45;7.00;;;4.40;;
75542;SDS011;64129;53.508;10.476;2022-11-20T02:32:31;5.75;;;4.68;;
75542;SDS011;64129;53.508;10.476;2022-11-20T02:37:44;6.30;;;4.93;;
75542;SDS011;64129;53.508;10.476;2022-11-20T02:40:13;6.60;;;4.85;;
75542;SDS011;64129;53.508;10.476;2022-11-20T02:42:39;8.55;;;4.90;;
75542;SDS011;64129;53.508;10.476;2022-11-20T02:45:06;8.88;;;4.65;;
75542;SDS011;64129;53.508;10.476;2022-11-20T02:47:33;5.95;;;4.25;;
75542;SDS011;64129;53.508;10.476;2022-11-20T02:50:00;5.95;;;4.22;;
75542;SDS011;64129;53.508;10.476;2022-11-20T02:52:26;5.30;;;4.00;;
75542;SDS011;64129;53.508;10.476;2022-11-20T02:54:53;7.15;;;4.63;;
75542;SDS011;64129;53.508;10.476;2022-11-20T02:57:19;3.75;;;3.22;;
75542;SDS011;64129;53.508;10.476;2022-11-20T02:59:46;5.18;;;3.80;;
75542;SDS011;64129;53.508;10.476;2022-11-20T03:02:12;6.65;;;3.83;;
75542;SDS011;64129;53.508;10.476;2022-11-20T03:04:39;6.20;;;4.35;;
75542;SDS011;64129;53.508;10.476;2022-11-20T03:07:05;4.65;;;4.15;;
75542;SDS011;64129;53.508;10.476;2022-11-20T03:09:35;5.97;;;4.30;;
75542;SDS011;64129;53.508;10.476;2022-11-20T03:12:02;7.22;;;4.25;;
75542;SDS011;64129;53.508;10.476;2022-11-20T03:14:28;5.93;;;3.92;;
75542;SDS011;64129;53.508;10.476;2022-11-20T03:16:55;6.75;;;4.75;;
75542;SDS011;64129;53.508;10.476;2022-11-20T03:19:22;6.13;;;4.55;;
75542;SDS011;64129;53.508;10.476;2022-11-20T03:21:48;6.60;;;4.78;;
75542;SDS011;64129;53.508;10.476;2022-11-20T03:24:15;5.80;;;4.57;;
75542;SDS011;64129;53.508;10.476;2022-11-20T03:26:41;6.18;;;4.75;;
75542;SDS011;64129;53.508;10.476;2022-11-20T03:29:08;6.15;;;4.43;;
75542;SDS011;64129;53.508;10.476;2022-11-20T03:31:35;8.93;;;4.22;;
75542;SDS011;64129;53.508;10.476;2022-11-20T03:34:03;6.05;;;4.22;;
75542;SDS011;64129;53.508;10.476;2022-11-20T03:36:30;8.10;;;4.90;;
75542;SDS011;64129;53.508;10.476;2022-11-20T03:38:57;6.22;;;3.78;;
75542;SDS011;64129;53.508;10.476;2022-11-20T03:41:24;8.80;;;4.78;;
75542;SDS011;64129;53.508;10.476;2022-11-20T03:43:59;5.32;;;4.45;;
75542;SDS011;64129;53.508;10.476;2022-11-20T03:46:27;6.30;;;4.13;;
75542;SDS011;64129;53.508;10.476;2022-11-20T03:48:54;7.93;;;5.35;;
75542;SDS011;64129;53.508;10.476;2022-11-20T03:51:21;7.80;;;5.15;;
75542;SDS011;64129;53.508;10.476;2022-11-20T03:53:54;9.00;;;5.40;;
75542;SDS011;64129;53.508;10.476;2022-11-20T03:56:25;7.82;;;5.28;;
75542;SDS011;64129;53.508;10.476;2022-11-20T03:58:54;7.32;;;4.97;;
75542;SDS011;64129;53.508;10.476;2022-11-20T04:01:21;8.18;;;4.85;;
75542;SDS011;64129;53.508;10.476;2022-11-20T04:03:51;6.00;;;4.40;;
75542;SDS011;64129;53.508;10.476;2022-11-20T04:06:20;8.02;;;5.75;;
75542;SDS011;64129;53.508;10.476;2022-11-20T04:08:48;9.25;;;5.72;;
75542;SDS011;64129;53.508;10.476;2022-11-20T04:11:19;6.88;;;4.60;;
75542;SDS011;64129;53.508;10.476;2022-11-20T04:13:52;6.30;;;4.68;;
75542;SDS011;64129;53.508;10.476;2022-11-20T04:16:21;8.38;;;5.43;;
75542;SDS011;64129;53.508;10.476;2022-11-20T04:21:23;7.07;;;4.75;;
75542;SDS011;64129;53.508;10.476;2022-11-20T04:23:50;7.53;;;4.93;;
75542;SDS011;64129;53.508;10.476;2022-11-20T04:26:19;7.78;;;5.55;;
75542;SDS011;64129;53.508;10.476;2022-11-20T04:28:46;6.05;;;4.50;;
75542;SDS011;64129;53.508;10.476;2022-11-20T04:31:14;8.88;;;6.00;;
75542;SDS011;64129;53.508;10.476;2022-11-20T04:33:42;6.13;;;4.25;;
75542;SDS011;64129;53.508;10.476;2022-11-20T04:36:10;7.25;;;4.85;;
75542;SDS011;64129;53.508;10.476;2022-11-20T04:38:38;10.10;;;5.03;;
75542;SDS011;64129;53.508;10.476;2022-11-20T04:41:06;8.07;;;4.95;;
75542;SDS011;64129;53.508;10.476;2022-11-20T04:43:34;6.72;;;4.72;;
75542;SDS011;64129;53.508;10.476;2022-11-20T04:46:00;6.43;;;3.90;;
75542;SDS011;64129;53.508;10.476;2022-11-20T04:48:28;8.25;;;5.20;;
75542;SDS011;64129;53.508;10.476;2022-11-20T04:50:55;6.47;;;4.68;;
75542;SDS011;64129;53.508;10.476;2022-11-20T04:53:22;8.60;;;4.72;;
75542;SDS011;64129;53.508;10.476;2022-11-20T04:55:50;7.30;;;4.22;;
75542;SDS011;64129;53.508;10.476;2022-11-20T04:58:16;6.60;;;4.38;;
75542;SDS011;64129;53.508;10.476;2022-11-20T05:00:43;5.43;;;4.03;;
75542;SDS011;64129;53.508;10.476;2022-11-20T05:03:09;8.02;;;4.95;;
75542;SDS011;64129;53.508;10.476;2022-11-20T05:05:36;6.43;;;4.57;;
75542;SDS011;64129;53.508;10.476;2022-11-20T05:08:02;6.88;;;4.63;;
75542;SDS011;64129;53.508;10.476;2022-11-20T05:10:29;6.63;;;5.10;;
75542;SDS011;64129;53.508;10.476;2022-11-20T05:12:56;6.20;;;4.30;;
75542;SDS011;64129;53.508;10.476;2022-11-20T05:15:23;5.88;;;4.45;;
75542;SDS011;64129;53.508;10.476;2022-11-20T05:17:50;6.50;;;4.55;;
75542;SDS011;64129;53.508;10.476;2022-11-20T05:20:18;7.78;;;5.10;;
75542;SDS011;64129;53.508;10.476;2022-11-20T05:22:45;6.15;;;4.80;;
75542;SDS011;64129;53.508;10.476;2022-11-20T05:25:12;5.88;;;4.10;;
75542;SDS011;64129;53.508;10.476;2022-11-20T05:27:38;7.20;;;4.28;;
75542;SDS011;64129;53.508;10.476;2022-11-20T05:30:05;7.85;;;5.40;;
75542;SDS011;64129;53.508;10.476;2022-11-20T05:32:32;6.43;;;4.10;;
75542;SDS011;64129;53.508;10.476;2022-11-20T05:34:59;8.25;;;4.45;;
75542;SDS011;64129;53.508;10.476;2022-11-20T05:37:25;7.03;;;4.80;;
75542;SDS011;64129;53.508;10.476;2022-11-20T05:39:51;7.95;;;4.90;;
75542;SDS011;64129;53.508;10.476;2022-11-20T05:42:18;7.35;;;4.32;;
75542;SDS011;64129;53.508;10.476;2022-11-20T05:44:57;7.43;;;4.82;;
75542;SDS011;64129;53.508;10.476;2022-11-20T05:47:25;5.55;;;4.70;;
75542;SDS011;64129;53.508;10.476;2022-11-20T05:49:57;5.93;;;4.88;;
75542;SDS011;64129;53.508;10.476;2022-11-20T05:52:24;9.65;;;5.10;;
75542;SDS011;64129;53.508;10.476;2022-11-20T05:54:50;10.15;;;5.60;;
75542;SDS011;64129;53.508;10.476;2022-11-20T05:57:17;8.20;;;5.20;;
75542;SDS011;64129;53.508;10.476;2022-11-20T05:59:43;8.95;;;5.35;;
75542;SDS011;64129;53.508;10.476;2022-11-20T06:02:10;10.73;;;4.68;;
75542;SDS011;64129;53.508;10.476;2022-11-20T06:04:36;8.00;;;4.38;;
75542;SDS011;64129;53.508;10.476;2022-11-20T06:07:04;5.95;;;4.20;;
75542;SDS011;64129;53.508;10.476;2022-11-20T06:09:31;8.60;;;5.32;;
75542;SDS011;64129;53.508;10.476;2022-11-20T06:11:58;5.90;;;3.92;;
75542;SDS011;64129;53.508;10.476;2022-11-20T06:14:24;7.85;;;5.80;;
75542;SDS011;64129;53.508;10.476;2022-11-20T06:16:51;9.85;;;6.22;;
75542;SDS011;64129;53.508;10.476;2022-11-20T06:19:17;5.32;;;4.05;;
75542;SDS011;64129;53.508;10.476;2022-11-20T06:21:44;7.45;;;5.15;;
75542;SDS011;64129;53.508;10.476;2022-11-20T06:24:10;6.53;;;4.65;;
75542;SDS011;64129;53.508;10.476;2022-11-20T06:26:37;6.47;;;4.60;;
75542;SDS011;64129;53.508;10.476;2022-11-20T06:29:03;6.03;;;5.25;;
75542;SDS011;64129;53.508;10.476;2022-11-20T06:31:30;6.97;;;5.15;;
75542;SDS011;64129;53.508;10.476;2022-11-20T06:33:58;5.28;;;4.43;;
75542;SDS011;64129;53.508;10.476;2022-11-20T06:36:25;6.22;;;4.90;;
75542;SDS011;64129;53.508;10.476;2022-11-20T06:38:51;6.47;;;4.10;;
75542;SDS011;64129;53.508;10.476;2022-11-20T06:41:19;7.28;;;4.97;;
75542;SDS011;64129;53.508;10.476;2022-11-20T06:43:46;6.45;;;4.85;;
75542;SDS011;64129;53.508;10.476;2022-11-20T06:46:14;5.68;;;4.75;;
75542;SDS011;64129;53.508;10.476;2022-11-20T06:48:43;8.10;;;5.00;;
75542;SDS011;64129;53.508;10.476;2022-11-20T06:51:10;7.03;;;5.03;;
75542;SDS011;64129;53.508;10.476;2022-11-20T06:53:37;7.63;;;5.40;;
75542;SDS011;64129;53.508;10.476;2022-11-20T06:56:04;7.25;;;5.28;;
75542;SDS011;64129;53.508;10.476;2022-11-20T06:58:32;7.95;;;5.50;;
75542;SDS011;64129;53.508;10.476;2022-11-20T07:01:01;6.97;;;5.30;;
75542;SDS011;64129;53.508;10.476;2022-11-20T07:03:32;7.53;;;5.43;;
75542;SDS011;64129;53.508;10.476;2022-11-20T07:05:59;8.65;;;5.50;;
75542;SDS011;64129;53.508;10.476;2022-11-20T07:08:26;8.45;;;6.03;;
75542;SDS011;64129;53.508;10.476;2022-11-20T07:10:58;8.07;;;6.28;;
75542;SDS011;64129;53.508;10.476;2022-11-20T07:13:26;8.45;;;5.82;;
75542;SDS011;64129;53.508;10.476;2022-11-20T07:15:53;10.02;;;6.82;;
75542;SDS011;64129;53.508;10.476;2022-11-20T07:18:20;9.63;;;7.57;;
75542;SDS011;64129;53.508;10.476;2022-11-20T07:20:47;9.48;;;7.18;;
75542;SDS011;64129;53.508;10.476;2022-11-20T07:23:13;8.60;;;6.47;;
75542;SDS011;64129;53.508;10.476;2022-11-20T07:25:40;9.02;;;6.57;;
75542;SDS011;64129;53.508;10.476;2022-11-20T07:28:06;8.88;;;6.28;;
75542;SDS011;64129;53.508;10.476;2022-11-20T07:30:33;10.57;;;6.75;;
75542;SDS011;64129;53.508;10.476;2022-11-20T07:32:59;8.20;;;5.85;;
75542;SDS011;64129;53.508;10.476;2022-11-20T07:35:26;7.30;;;6.07;;
75542;SDS011;64129;53.508;10.476;2022-11-20T07:37:52;6.45;;;5.25;;
75542;SDS011;64129;53.508;10.476;2022-11-20T07:40:19;8.60;;;5.75;;
75542;SDS011;64129;53.508;10.476;2022-11-20T07:42:53;8.15;;;5.65;;
75542;SDS011;64129;53.508;10.476;2022-11-20T07:45:22;6.57;;;5.57;;
75542;SDS011;64129;53.508;10.476;2022-11-20T07:47:50;6.22;;;5.53;;
75542;SDS011;64129;53.508;10.476;2022-11-20T07:50:17;11.43;;;6.28;;
75542;SDS011;64129;53.508;10.476;2022-11-20T07:55:11;9.52;;;5.97;;
75542;SDS011;64129;53.508;10.476;2022-11-20T07:57:38;9.07;;;5.18;;
75542;SDS011;64129;53.508;10.476;2022-11-20T08:00:05;6.30;;;5.10;;
75542;SDS011;64129;53.508;10.476;2022-11-20T08:02:37;7.95;;;5.32;;
75542;SDS011;64129;53.508;10.476;2022-11-20T08:05:05;7.72;;;5.47;;
75542;SDS011;64129;53.508;10.476;2022-11-20T08:07:35;7.95;;;5.95;;
75542;SDS011;64129;53.508;10.476;2022-11-20T08:10:05;6.13;;;4.78;;
75542;SDS011;64129;53.508;10.476;2022-11-20T08:12:33;8.65;;;6.20;;
75542;SDS011;64129;53.508;10.476;2022-11-20T08:15:18;7.43;;;5.95;;
75542;SDS011;64129;53.508;10.476;2022-11-20T08:17:44;9.60;;;6.47;;
75542;SDS011;64129;53.508;10.476;2022-11-20T08:20:17;7.72;;;5.88;;
75542;SDS011;64129;53.508;10.476;2022-11-20T08:22:44;9.20;;;6.22;;
75542;SDS011;64129;53.508;10.476;2022-11-20T08:25:10;8.75;;;6.68;;
75542;SDS011;64129;53.508;10.476;2022-11-20T08:27:36;6.82;;;5.53;;
75542;SDS011;64129;53.508;10.476;2022-11-20T08:30:04;7.32;;;5.63;;
75542;SDS011;64129;53.508;10.476;2022-11-20T08:32:31;7.60;;;5.10;;
75542;SDS011;64129;53.508;10.476;2022-11-20T08:34:57;8.40;;;4.93;;
75542;SDS011;64129;53.508;10.476;2022-11-20T08:37:24;8.43;;;5.68;;
75542;SDS011;64129;53.508;10.476;2022-11-20T08:39:50;7.15;;;4.93;;
75542;SDS011;64129;53.508;10.476;2022-11-20T08:42:17;9.98;;;6.30;;
75542;SDS011;64129;53.508;10.476;2022-11-20T08:44:43;8.35;;;6.05;;
75542;SDS011;64129;53.508;10.476;2022-11-20T08:47:10;8.93;;;5.00;;
75542;SDS011;64129;53.508;10.476;2022-11-20T08:49:36;6.72;;;5.45;;
75542;SDS011;64129;53.508;10.476;2022-11-20T08:52:02;6.93;;;5.72;;
75542;SDS011;64129;53.508;10.476;2022-11-20T08:54:29;8.35;;;5.78;;
75542;SDS011;64129;53.508;10.476;2022-11-20T08:56:55;9.52;;;5.88;;
75542;SDS011;64129;53.508;10.476;2022-11-20T08:59:22;6.47;;;5.40;;
75542;SDS011;64129;53.508;10.476;2022-11-20T09:02:02;7.88;;;5.70;;
75542;SDS011;64129;53.508;10.476;2022-11-20T09:04:28;8.80;;;5.93;;
75542;SDS011;64129;53.508;10.476;2022-11-20T09:06:55;6.97;;;5.60;;
75542;SDS011;64129;53.508;10.476;2022-11-20T09:09:21;6.22;;;5.40;;
75542;SDS011;64129;53.508;10.476;2022-11-20T09:11:48;5.10;;;4.28;;
75542;SDS011;64129;53.508;10.476;2022-11-20T09:14:16;7.47;;;5.60;;
75542;SDS011;64129;53.508;10.476;2022-11-20T09:16:44;7.00;;;4.93;;
75542;SDS011;64129;53.508;10.476;2022-11-20T09:19:11;6.45;;;4.68;;
75542;SDS011;64129;53.508;10.476;2022-11-20T09:21:58;7.88;;;7.13;;
75542;SDS011;64129;53.508;10.476;2022-11-20T09:24:26;7.85;;;5.55;;
75542;SDS011;64129;53.508;10.476;2022-11-20T09:26:53;8.75;;;7.85;;
75542;SDS011;64129;53.508;10.476;2022-11-20T09:29:20;6.22;;;4.60;;
75542;SDS011;64129;53.508;10.476;2022-11-20T09:31:47;8.50;;;5.90;;
75542;SDS011;64129;53.508;10.476;2022-11-20T09:34:13;6.93;;;4.18;;
75542;SDS011;64129;53.508;10.476;2022-11-20T09:36:40;6.25;;;4.32;;
75542;SDS011;64129;53.508;10.476;2022-11-20T09:39:06;3.75;;;3.35;;
75542;SDS011;64129;53.508;10.476;2022-11-20T09:41:36;6.45;;;4.65;;
75542;SDS011;64129;53.508;10.476;2022-11-20T09:46:40;5.63;;;4.80;;
75542;SDS011;64129;53.508;10.476;2022-11-20T09:52:25;7.53;;;5.32;;
75542;SDS011;64129;53.508;10.476;2022-11-20T09:54:56;5.22;;;4.60;;
75542;SDS011;64129;53.508;10.476;2022-11-20T09:57:31;4.13;;;3.65;;
75542;SDS011;64129;53.508;10.476;2022-11-20T10:00:04;4.88;;;4.00;;
75542;SDS011;64129;53.508;10.476;2022-11-20T10:03:13;5.18;;;4.10;;
75542;SDS011;64129;53.508;10.476;2022-11-20T10:08:24;5.47;;;4.13;;
75542;SDS011;64129;53.508;10.476;2022-11-20T10:30:29;3.40;;;2.70;;
75542;SDS011;64129;53.508;10.476;2022-11-20T10:33:13;4.97;;;3.97;;
75542;SDS011;64129;53.508;10.476;2022-11-20T10:35:44;4.05;;;3.40;;
75542;SDS011;64129;53.508;10.476;2022-11-20T10:40:53;4.35;;;3.55;;
75542;SDS011;64129;53.508;10.476;2022-11-20T10:43:43;3.90;;;3.50;;
75542;SDS011;64129;53.508;10.476;2022-11-20T10:46:17;3.05;;;2.40;;
75542;SDS011;64129;53.508;10.476;2022-11-20T10:48:46;5.57;;;4.35;;
75542;SDS011;64129;53.508;10.476;2022-11-20T10:56:38;8.05;;;7.32;;
75542;SDS011;64129;53.508;10.476;2022-11-20T11:01:53;5.70;;;4.65;;
75542;SDS011;64129;53.508;10.476;2022-11-20T11:07:01;4.55;;;4.15;;
75542;SDS011;64129;53.508;10.476;2022-11-20T11:09:37;4.03;;;3.55;;
75542;SDS011;64129;53.508;10.476;2022-11-20T11:12:09;4.55;;;4.15;;
75542;SDS011;64129;53.508;10.476;2022-11-20T11:14:43;4.35;;;3.85;;
75542;SDS011;64129;53.508;10.476;2022-11-20T11:17:21;4.65;;;3.60;;
75542;SDS011;64129;53.508;10.476;2022-11-20T11:19:59;4.78;;;3.97;;
75542;SDS011;64129;53.508;10.476;2022-11-20T11:22:29;3.60;;;3.30;;
75542;SDS011;64129;53.508;10.476;2022-11-20T11:24:58;4.65;;;3.60;;
75542;SDS011;64129;53.508;10.476;2022-11-20T11:27:25;3.53;;;2.65;;
75542;SDS011;64129;53.508;10.476;2022-11-20T11:30:00;2.88;;;2.60;;
75542;SDS011;64129;53.508;10.476;2022-11-20T11:32:39;3.25;;;3.05;;
75542;SDS011;64129;53.508;10.476;2022-11-20T11:35:06;3.35;;;3.05;;
75542;SDS011;64129;53.508;10.476;2022-11-20T11:37:45;2.78;;;2.58;;
75542;SDS011;64129;53.508;10.476;2022-11-20T11:40:14;3.10;;;2.90;;
75542;SDS011;64129;53.508;10.476;2022-11-20T11:45:18;3.00;;;2.70;;
75542;SDS011;64129;53.508;10.476;2022-11-20T11:47:46;2.55;;;2.35;;
75542;SDS011;64129;53.508;10.476;2022-11-20T11:50:15;3.15;;;2.58;;
75542;SDS011;64129;53.508;10.476;2022-11-20T11:55:35;3.00;;;2.72;;
75542;SDS011;64129;53.508;10.476;2022-11-20T12:00:39;3.15;;;2.85;;
75542;SDS011;64129;53.508;10.476;2022-11-20T12:03:16;3.30;;;2.80;;
75542;SDS011;64129;53.508;10.476;2022-11-20T12:05:55;3.88;;;3.05;;
75542;SDS011;64129;53.508;10.476;2022-11-20T12:11:29;2.50;;;2.30;;
75542;SDS011;64129;53.508;10.476;2022-11-20T12:14:11;3.13;;;2.80;;
75542;SDS011;64129;53.508;10.476;2022-11-20T12:16:45;3.15;;;2.85;;
75542;SDS011;64129;53.508;10.476;2022-11-20T12:19:12;2.83;;;2.20;;
75542;SDS011;64129;53.508;10.476;2022-11-20T12:24:52;1.90;;;1.80;;
75542;SDS011;64129;53.508;10.476;2022-11-20T12:30:09;2.40;;;1.65;;
75542;SDS011;64129;53.508;10.476;2022-11-20T12:50:08;2.40;;;2.05;;
75542;SDS011;64129;53.508;10.476;2022-11-20T13:01:37;3.17;;;2.08;;
75542;SDS011;64129;53.508;10.476;2022-11-20T13:07:02;2.30;;;2.10;;
75542;SDS011;64129;53.508;10.476;2022-11-20T13:09:32;2.08;;;1.88;;
75542;SDS011;64129;53.508;10.476;2022-11-20T13:12:04;2.65;;;1.92;;
75542;SDS011;64129;53.508;10.476;2022-11-20T13:14:53;2.15;;;1.95;;
75542;SDS011;64129;53.508;10.476;2022-11-20T13:17:30;1.88;;;1.77;;
75542;SDS011;64129;53.508;10.476;2022-11-20T13:20:05;2.28;;;1.75;;
75542;SDS011;64129;53.508;10.476;2022-11-20T13:22:45;2.13;;;1.88;;
75542;SDS011;64129;53.508;10.476;2022-11-20T13:28:05;1.98;;;1.77;;
75542;SDS011;64129;53.508;10.476;2022-11-20T13:30:55;2.65;;;2.25;;
75542;SDS011;64129;53.508;10.476;2022-11-20T13:33:35;2.95;;;2.67;;
75542;SDS011;64129;53.508;10.476;2022-11-20T13:36:05;3.58;;;2.47;;
75542;SDS011;64129;53.508;10.476;2022-11-20T13:38:53;2.13;;;1.85;;
75542;SDS011;64129;53.508;10.476;2022-11-20T13:41:28;2.15;;;1.33;;
75542;SDS011;64129;53.508;10.476;2022-11-20T13:46:36;2.65;;;2.45;;
75542;SDS011;64129;53.508;10.476;2022-11-20T13:49:21;2.63;;;2.20;;
75542;SDS011;64129;53.508;10.476;2022-11-20T13:51:50;3.33;;;2.67;;
75542;SDS011;64129;53.508;10.476;2022-11-20T13:54:29;2.55;;;2.30;;
75542;SDS011;64129;53.508;10.476;2022-11-20T13:57:35;2.22;;;2.00;;
75542;SDS011;64129;53.508;10.476;2022-11-20T14:02:51;2.80;;;2.50;;
75542;SDS011;64129;53.508;10.476;2022-11-20T14:05:27;2.15;;;1.95;;
75542;SDS011;64129;53.508;10.476;2022-11-20T14:07:57;2.70;;;2.50;;
75542;SDS011;64129;53.508;10.476;2022-11-20T14:10:25;2.25;;;2.05;;
75542;SDS011;64129;53.508;10.476;2022-11-20T14:12:56;2.88;;;2.38;;
75542;SDS011;64129;53.508;10.476;2022-11-20T14:15:32;3.47;;;3.17;;
75542;SDS011;64129;53.508;10.476;2022-11-20T14:18:10;3.85;;;3.15;;
75542;SDS011;64129;53.508;10.476;2022-11-20T14:20:39;2.65;;;2.33;;
75542;SDS011;64129;53.508;10.476;2022-11-20T14:23:07;3.60;;;3.00;;
75542;SDS011;64129;53.508;10.476;2022-11-20T14:25:36;8.63;;;3.03;;
75542;SDS011;64129;53.508;10.476;2022-11-20T14:28:03;4.18;;;3.65;;
75542;SDS011;64129;53.508;10.476;2022-11-20T14:30:42;5.20;;;3.60;;
75542;SDS011;64129;53.508;10.476;2022-11-20T14:33:10;5.07;;;3.85;;
75542;SDS011;64129;53.508;10.476;2022-11-20T14:35:49;4.53;;;4.13;;
75542;SDS011;64129;53.508;10.476;2022-11-20T14:38:21;5.60;;;4.47;;
75542;SDS011;64129;53.508;10.476;2022-11-20T14:40:52;5.55;;;4.50;;
75542;SDS011;64129;53.508;10.476;2022-11-20T14:45:56;4.65;;;3.63;;
75542;SDS011;64129;53.508;10.476;2022-11-20T14:48:29;5.03;;;3.78;;
75542;SDS011;64129;53.508;10.476;2022-11-20T14:51:00;4.78;;;3.47;;
75542;SDS011;64129;53.508;10.476;2022-11-20T14:53:26;4.10;;;3.55;;
75542;SDS011;64129;53.508;10.476;2022-11-20T14:55:57;3.58;;;3.28;;
75542;SDS011;64129;53.508;10.476;2022-11-20T14:58:29;3.70;;;3.40;;
75542;SDS011;64129;53.508;10.476;2022-11-20T15:01:01;6.93;;;3.58;;
75542;SDS011;64129;53.508;10.476;2022-11-20T15:03:34;4.07;;;2.90;;
75542;SDS011;64129;53.508;10.476;2022-11-20T15:06:06;4.72;;;3.40;;
75542;SDS011;64129;53.508;10.476;2022-11-20T15:08:34;3.92;;;3.50;;
75542;SDS011;64129;53.508;10.476;2022-11-20T15:11:00;4.57;;;3.50;;
75542;SDS011;64129;53.508;10.476;2022-11-20T15:13:31;6.22;;;3.92;;
75542;SDS011;64129;53.508;10.476;2022-11-20T15:16:01;3.92;;;3.28;;
75542;SDS011;64129;53.508;10.476;2022-11-20T15:18:30;4.15;;;3.45;;
75542;SDS011;64129;53.508;10.476;2022-11-20T15:21:02;4.57;;;3.55;;
75542;SDS011;64129;53.508;10.476;2022-11-20T15:23:32;3.88;;;3.03;;
75542;SDS011;64129;53.508;10.476;2022-11-20T15:25:58;4.78;;;4.05;;
75542;SDS011;64129;53.508;10.476;2022-11-20T15:28:32;4.03;;;3.38;;
75542;SDS011;64129;53.508;10.476;2022-11-20T15:31:00;3.53;;;3.22;;
75542;SDS011;64129;53.508;10.476;2022-11-20T15:33:28;3.97;;;3.50;;
75542;SDS011;64129;53.508;10.476;2022-11-20T15:35:55;5.05;;;4.00;;
75542;SDS011;64129;53.508;10.476;2022-11-20T15:38:21;4.70;;;4.22;;
75542;SDS011;64129;53.508;10.476;2022-11-20T15:40:48;4.40;;;4.00;;
75542;SDS011;64129;53.508;10.476;2022-11-20T15:43:15;5.45;;;4.13;;
75542;SDS011;64129;53.508;10.476;2022-11-20T15:45:49;5.68;;;4.10;;
75542;SDS011;64129;53.508;10.476;2022-11-20T15:49:05;5.60;;;4.22;;
75542;SDS011;64129;53.508;10.476;2022-11-20T15:51:14;4.07;;;3.67;;
75542;SDS011;64129;53.508;10.476;2022-11-20T15:53:49;7.57;;;5.63;;
75542;SDS011;64129;53.508;10.476;2022-11-20T15:56:16;6.10;;;5.32;;
75542;SDS011;64129;53.508;10.476;2022-11-20T15:58:43;7.30;;;5.45;;
75542;SDS011;64129;53.508;10.476;2022-11-20T16:01:13;5.90;;;5.00;;
75542;SDS011;64129;53.508;10.476;2022-11-20T16:03:41;5.80;;;5.25;;
75542;SDS011;64129;53.508;10.476;2022-11-20T16:06:09;6.15;;;5.18;;
75542;SDS011;64129;53.508;10.476;2022-11-20T16:08:35;6.80;;;5.35;;
75542;SDS011;64129;53.508;10.476;2022-11-20T16:11:02;6.25;;;5.03;;
75542;SDS011;64129;53.508;10.476;2022-11-20T16:13:30;6.03;;;5.32;;
75542;SDS011;64129;53.508;10.476;2022-11-20T16:16:21;7.10;;;4.65;;
75542;SDS011;64129;53.508;10.476;2022-11-20T16:18:51;6.18;;;4.75;;
75542;SDS011;64129;53.508;10.476;2022-11-20T16:21:18;6.15;;;5.55;;
75542;SDS011;64129;53.508;10.476;2022-11-20T16:23:44;5.53;;;5.03;;
75542;SDS011;64129;53.508;10.476;2022-11-20T16:26:12;6.25;;;5.35;;
75542;SDS011;64129;53.508;10.476;2022-11-20T16:28:39;7.63;;;6.20;;
75542;SDS011;64129;53.508;10.476;2022-11-20T16:31:09;7.30;;;5.53;;
75542;SDS011;64129;53.508;10.476;2022-11-20T16:33:37;7.93;;;5.88;;
75542;SDS011;64129;53.508;10.476;2022-11-20T16:36:08;7.05;;;6.35;;
75542;SDS011;64129;53.508;10.476;2022-11-20T16:38:38;7.03;;;5.72;;
75542;SDS011;64129;53.508;10.476;2022-11-20T16:41:05;6.25;;;5.63;;
75542;SDS011;64129;53.508;10.476;2022-11-20T16:43:43;6.05;;;5.18;;